Time;durP1;ratioP1;P1;durP2;ratioP2;P2;SDS_P1;SDS_P2;PMS_P1;PMS_P2;Temp;Humidity;BMP_temperature;BMP_pressure;BME280_temperature;BME280_humidity;BME280_pressure;Samples;Min_cycle;Max_cycle;Signal;HPM_P1;HPM_P2
2022/09/16 00:01:01;;;;;;;5.67;4.80;;;16.80;99.90;;;;;;5054420;28;20202;-67
2022/09/16 00:03:27;;;;;;;5.40;4.93;;;16.70;99.90;;;;;;5058944;28;20253;-66
2022/09/16 00:05:53;;;;;;;5.87;5.27;;;16.70;99.90;;;;;;5058874;28;20169;-67
2022/09/16 00:08:19;;;;;;;5.30;4.90;;;16.80;99.90;;;;;;5059411;28;20399;-67
2022/09/16 00:10:45;;;;;;;4.73;4.30;;;16.90;99.90;;;;;;5054931;28;20426;-67
2022/09/16 00:13:12;;;;;;;6.43;5.10;;;17.00;99.90;;;;;;5055729;28;20441;-67
2022/09/16 00:15:42;;;;;;;5.10;4.53;;;17.00;99.90;;;;;;5055896;28;20228;-67
2022/09/16 00:18:09;;;;;;;5.20;4.70;;;16.90;99.90;;;;;;5055921;28;20393;-67
2022/09/16 00:20:35;;;;;;;5.63;4.33;;;16.90;99.90;;;;;;5055457;28;20424;-67
2022/09/16 00:23:01;;;;;;;5.77;4.57;;;16.90;99.90;;;;;;5055791;28;20766;-67
2022/09/16 00:25:26;;;;;;;4.50;4.10;;;16.90;99.90;;;;;;5055212;28;20647;-67
2022/09/16 00:27:52;;;;;;;5.93;5.40;;;16.90;99.90;;;;;;5055346;28;20173;-66
2022/09/16 00:30:17;;;;;;;5.17;4.67;;;17.00;99.90;;;;;;5055523;28;20243;-66
2022/09/16 00:32:43;;;;;;;4.87;4.37;;;17.00;99.90;;;;;;5055423;28;20166;-66
2022/09/16 00:35:09;;;;;;;4.90;4.50;;;17.00;99.90;;;;;;5055474;28;20168;-67
2022/09/16 00:37:34;;;;;;;7.80;5.13;;;16.90;99.90;;;;;;5055206;28;20459;-67
2022/09/16 00:40:00;;;;;;;6.30;5.63;;;16.80;99.90;;;;;;5055230;28;20187;-67
2022/09/16 00:42:26;;;;;;;5.23;4.60;;;16.60;99.90;;;;;;5054884;28;20169;-67
2022/09/16 00:44:56;;;;;;;5.37;4.83;;;16.60;99.90;;;;;;5055376;28;20211;-67
2022/09/16 00:47:25;;;;;;;5.50;4.90;;;16.60;99.90;;;;;;5055333;28;20219;-67
2022/09/16 00:49:55;;;;;;;5.50;4.80;;;16.60;99.90;;;;;;5055304;28;20899;-67
2022/09/16 00:52:21;;;;;;;6.40;4.43;;;16.60;99.90;;;;;;5055297;28;20389;-67
2022/09/16 00:54:47;;;;;;;5.30;4.80;;;16.60;99.90;;;;;;5054955;28;20423;-67
2022/09/16 00:57:14;;;;;;;5.90;5.00;;;16.60;99.90;;;;;;5053505;28;20954;-67
2022/09/16 00:59:48;;;;;;;5.63;5.10;;;16.60;99.90;;;;;;5037076;28;20525;-67
2022/09/16 01:02:17;;;;;;;6.40;5.80;;;16.70;99.90;;;;;;5054791;28;20474;-67
2022/09/16 01:04:52;;;;;;;5.73;5.20;;;16.50;99.90;;;;;;5055219;28;20741;-67
2022/09/16 01:07:27;;;;;;;7.43;4.93;;;16.40;99.90;;;;;;5055250;28;20521;-67
2022/09/16 01:09:53;;;;;;;5.63;4.80;;;16.20;99.90;;;;;;5054849;28;20967;-67
2022/09/16 01:12:19;;;;;;;4.90;4.40;;;16.20;99.90;;;;;;5054077;28;20446;-66
2022/09/16 01:14:53;;;;;;;6.70;4.93;;;16.20;99.90;;;;;;5054599;28;20173;-67
2022/09/16 01:17:43;;;;;;;7.43;5.40;;;16.20;99.90;;;;;;5054738;28;20181;-67
2022/09/16 01:20:46;;;;;;;5.93;5.43;;;16.20;99.90;;;;;;5054720;28;20765;-66
2022/09/16 01:23:50;;;;;;;5.40;5.00;;;16.20;99.90;;;;;;5053676;28;20399;-67
2022/09/16 01:26:21;;;;;;;7.00;5.07;;;16.20;99.90;;;;;;5054128;28;20418;-67
2022/09/16 01:29:18;;;;;;;7.20;5.50;;;16.20;99.90;;;;;;5054226;28;20407;-67
2022/09/16 01:31:58;;;;;;;5.87;5.37;;;16.30;99.90;;;;;;5054277;28;20489;-67
2022/09/16 01:34:37;;;;;;;8.63;4.90;;;16.30;99.90;;;;;;5054327;28;20438;-67
2022/09/16 01:37:11;;;;;;;5.47;4.97;;;16.30;99.90;;;;;;5054398;28;20447;-67
2022/09/16 01:40:04;;;;;;;5.40;4.90;;;16.40;99.90;;;;;;5036263;28;20382;-67
2022/09/16 01:42:41;;;;;;;6.00;5.00;;;16.40;99.90;;;;;;5053619;28;20388;-67
2022/09/16 01:45:19;;;;;;;6.93;5.47;;;16.40;99.90;;;;;;5054227;28;20474;-67
2022/09/16 01:48:09;;;;;;;6.10;5.50;;;16.30;99.90;;;;;;5054217;28;20409;-67
2022/09/16 01:50:45;;;;;;;5.10;4.70;;;16.30;99.90;;;;;;5054067;28;20419;-67
2022/09/16 01:53:23;;;;;;;6.63;6.00;;;16.20;99.90;;;;;;5053786;28;20381;-67
2022/09/16 01:56:32;;;;;;;6.43;5.87;;;16.00;99.90;;;;;;5052873;28;20449;-65
2022/09/16 01:59:08;;;;;;;5.77;5.10;;;15.80;99.90;;;;;;5042785;28;20910;-65
2022/09/16 02:02:12;;;;;;;8.73;5.23;;;16.00;99.90;;;;;;5053810;28;20468;-66
2022/09/16 02:04:46;;;;;;;6.07;5.43;;;15.90;99.90;;;;;;4953745;29;20467;-67
2022/09/16 02:07:15;;;;;;;6.37;5.73;;;16.00;99.90;;;;;;5040909;28;20475;-66
2022/09/16 02:09:44;;;;;;;4.60;4.17;;;16.00;99.90;;;;;;5032210;28;20469;-66
2022/09/16 02:12:17;;;;;;;7.00;5.13;;;16.10;99.90;;;;;;5033584;28;20503;-66
2022/09/16 02:14:45;;;;;;;5.53;5.03;;;16.20;99.90;;;;;;5033850;28;20394;-66
2022/09/16 02:17:16;;;;;;;5.23;4.73;;;16.10;99.90;;;;;;5033702;28;20959;-66
2022/09/16 02:20:06;;;;;;;4.97;4.50;;;15.90;99.90;;;;;;5033695;28;20402;-67
2022/09/16 02:22:39;;;;;;;9.43;5.23;;;16.10;99.90;;;;;;5033132;28;20380;-67
2022/09/16 02:25:07;;;;;;;6.80;5.43;;;16.10;99.90;;;;;;5033417;28;20771;-67
2022/09/16 02:27:35;;;;;;;4.60;4.00;;;16.10;99.90;;;;;;5033087;28;20465;-67
2022/09/16 02:30:08;;;;;;;5.13;4.63;;;16.00;99.90;;;;;;5033114;28;20500;-66
2022/09/16 02:32:38;;;;;;;4.37;3.97;;;16.10;99.90;;;;;;5080820;23;20489;-71
2022/09/16 02:35:08;;;;;;;6.10;4.47;;;16.20;99.90;;;;;;5072031;28;20762;-69
2022/09/16 02:37:43;;;;;;;5.67;4.80;;;16.30;99.90;;;;;;5072787;28;20441;-71
2022/09/16 02:40:18;;;;;;;7.67;4.43;;;16.10;99.90;;;;;;5073732;28;20393;-70
2022/09/16 02:42:44;;;;;;;5.73;3.70;;;16.20;99.90;;;;;;5073003;28;20791;-70
2022/09/16 02:45:10;;;;;;;4.87;4.47;;;16.20;99.90;;;;;;5073310;28;20399;-70
2022/09/16 02:48:03;;;;;;;5.50;4.40;;;16.20;99.90;;;;;;5073620;28;20250;-70
2022/09/16 02:50:54;;;;;;;6.60;4.00;;;16.00;99.90;;;;;;5073217;28;20439;-69
2022/09/16 02:53:44;;;;;;;5.83;4.50;;;16.00;99.90;;;;;;5071657;28;20414;-70
2022/09/16 02:56:19;;;;;;;5.00;4.13;;;15.80;99.90;;;;;;5072395;28;20443;-70
2022/09/16 02:58:45;;;;;;;8.57;4.30;;;15.80;99.90;;;;;;5073366;28;20929;-70
2022/09/16 03:01:13;;;;;;;4.20;3.80;;;15.90;99.90;;;;;;5072920;28;20538;-70
2022/09/16 03:03:39;;;;;;;6.03;3.67;;;15.80;99.90;;;;;;5073403;28;20402;-70
2022/09/16 03:06:05;;;;;;;4.43;4.03;;;15.80;99.90;;;;;;5072175;28;20411;-70
2022/09/16 03:08:32;;;;;;;6.77;4.80;;;15.50;99.90;;;;;;5073421;28;20484;-70
2022/09/16 03:11:07;;;;;;;4.13;3.73;;;15.50;99.90;;;;;;5072642;28;20193;-70
2022/09/16 03:13:57;;;;;;;4.40;3.70;;;15.60;99.90;;;;;;5073559;28;20415;-70
2022/09/16 03:17:04;;;;;;;4.93;4.43;;;15.60;99.90;;;;;;5073496;28;20427;-70
2022/09/16 03:20:10;;;;;;;5.60;3.90;;;15.60;99.90;;;;;;5073180;28;20749;-70
2022/09/16 03:22:48;;;;;;;4.37;3.97;;;15.50;99.90;;;;;;5073083;28;20469;-70
2022/09/16 03:25:38;;;;;;;3.97;3.23;;;15.40;99.90;;;;;;5073229;28;20466;-70
2022/09/16 03:28:27;;;;;;;3.93;3.63;;;15.60;99.90;;;;;;5073456;28;20387;-70
2022/09/16 03:31:13;;;;;;;5.43;3.40;;;15.70;99.90;;;;;;5075051;28;20429;-70
2022/09/16 03:33:46;;;;;;;7.93;3.57;;;15.80;99.90;;;;;;5074081;28;20393;-70
2022/09/16 03:36:17;;;;;;;5.80;3.13;;;15.80;99.90;;;;;;5073493;28;20431;-69
2022/09/16 03:38:43;;;;;;;4.30;3.87;;;15.90;99.90;;;;;;5072697;28;20392;-70
2022/09/16 03:41:09;;;;;;;4.73;3.90;;;15.70;99.90;;;;;;5072096;28;20419;-70
2022/09/16 03:43:35;;;;;;;4.23;3.40;;;15.70;99.90;;;;;;5072759;28;20453;-69
2022/09/16 03:46:01;;;;;;;5.23;4.20;;;15.70;99.90;;;;;;5075527;28;20917;-70
2022/09/16 03:48:26;;;;;;;5.00;3.50;;;15.70;99.90;;;;;;5076928;28;20640;-71
2022/09/16 03:50:52;;;;;;;5.30;3.20;;;15.80;99.90;;;;;;5076212;28;20283;-71
2022/09/16 03:53:18;;;;;;;5.13;3.87;;;15.80;99.90;;;;;;5076510;28;20178;-71
2022/09/16 03:55:43;;;;;;;3.50;3.13;;;15.70;99.90;;;;;;5076161;28;20205;-70
2022/09/16 03:58:09;;;;;;;5.90;3.53;;;15.80;99.90;;;;;;5076831;28;20422;-71
2022/09/16 04:00:35;;;;;;;4.63;3.50;;;15.90;99.90;;;;;;5078614;28;20176;-71
2022/09/16 04:03:01;;;;;;;6.17;4.10;;;15.80;99.90;;;;;;5078694;28;20225;-70
2022/09/16 04:05:27;;;;;;;3.40;3.10;;;15.90;99.90;;;;;;5076559;28;20414;-70
2022/09/16 04:07:52;;;;;;;3.67;3.23;;;16.00;99.90;;;;;;5076264;28;20565;-70
2022/09/16 04:10:18;;;;;;;4.00;3.17;;;16.00;99.90;;;;;;5075925;28;20229;-70
2022/09/16 04:12:44;;;;;;;6.63;4.00;;;15.90;99.90;;;;;;5075552;28;20188;-70
2022/09/16 04:15:10;;;;;;;4.00;3.00;;;16.00;99.90;;;;;;5076324;28;20453;-69
2022/09/16 04:17:36;;;;;;;5.80;3.00;;;16.00;99.90;;;;;;5076807;28;20218;-70
2022/09/16 04:20:02;;;;;;;3.60;2.97;;;16.00;99.90;;;;;;5076455;28;20442;-71
2022/09/16 04:22:29;;;;;;;4.50;3.53;;;16.00;99.90;;;;;;5076422;28;20191;-70
2022/09/16 04:24:55;;;;;;;4.23;2.90;;;15.90;99.90;;;;;;5076203;28;20394;-70
2022/09/16 04:27:21;;;;;;;4.20;3.80;;;15.90;99.90;;;;;;5075494;28;20448;-70
2022/09/16 04:29:46;;;;;;;2.90;2.60;;;16.00;99.90;;;;;;5075933;28;20419;-70
2022/09/16 04:32:12;;;;;;;3.53;3.23;;;16.00;99.90;;;;;;5075845;28;20672;-71
2022/09/16 04:34:37;;;;;;;5.00;3.13;;;15.90;99.90;;;;;;5076185;28;20176;-70
2022/09/16 04:37:03;;;;;;;6.80;3.40;;;15.80;99.90;;;;;;5075598;28;20684;-70
2022/09/16 04:39:29;;;;;;;5.30;3.07;;;15.80;99.90;;;;;;5075759;28;20563;-70
2022/09/16 04:41:54;;;;;;;3.83;2.60;;;15.70;99.90;;;;;;5069636;28;20594;-70
2022/09/16 04:44:20;;;;;;;3.47;3.13;;;15.60;99.90;;;;;;5072697;28;20359;-69
2022/09/16 04:46:46;;;;;;;3.97;3.60;;;15.60;99.90;;;;;;5067560;28;20183;-69
2022/09/16 04:49:11;;;;;;;3.87;2.90;;;15.60;99.90;;;;;;5066032;28;20214;-71
2022/09/16 04:51:37;;;;;;;5.30;3.63;;;15.60;99.90;;;;;;5070855;28;20198;-70
2022/09/16 04:54:03;;;;;;;4.10;2.60;;;15.70;99.90;;;;;;5075635;28;20175;-70
2022/09/16 04:56:31;;;;;;;6.60;4.10;;;15.80;99.90;;;;;;5072973;28;20485;-70
2022/09/16 04:58:59;;;;;;;5.57;3.07;;;15.90;99.90;;;;;;5074592;28;20165;-70
2022/09/16 05:01:28;;;;;;;5.83;3.20;;;15.80;99.90;;;;;;5074013;28;20812;-70
2022/09/16 05:03:56;;;;;;;4.43;3.43;;;15.60;99.90;;;;;;5075050;28;20411;-69
2022/09/16 05:06:24;;;;;;;4.87;3.60;;;15.70;99.90;;;;;;5074815;28;20404;-70
2022/09/16 05:08:51;;;;;;;4.20;3.73;;;15.60;99.90;;;;;;5074839;28;20507;-70
2022/09/16 05:11:28;;;;;;;4.17;3.43;;;15.50;99.90;;;;;;5074428;28;20465;-70
2022/09/16 05:13:57;;;;;;;4.63;3.20;;;15.40;99.90;;;;;;5075005;28;20391;-70
2022/09/16 05:16:23;;;;;;;3.73;3.33;;;15.30;99.90;;;;;;5074827;28;20478;-71
2022/09/16 05:18:50;;;;;;;5.00;2.90;;;15.30;99.90;;;;;;5074917;28;20408;-70
2022/09/16 05:21:18;;;;;;;4.73;3.10;;;15.30;99.90;;;;;;5073750;28;20206;-69
2022/09/16 05:23:45;;;;;;;3.50;3.20;;;15.30;99.90;;;;;;5073669;28;20414;-69
2022/09/16 05:26:13;;;;;;;4.40;3.30;;;15.10;99.90;;;;;;5074497;28;20793;-70
2022/09/16 05:28:39;;;;;;;4.70;4.20;;;15.10;99.90;;;;;;5074455;28;20402;-71
2022/09/16 05:31:10;;;;;;;6.50;4.63;;;15.00;99.90;;;;;;5075496;28;20836;-70
2022/09/16 05:33:36;;;;;;;4.20;3.80;;;15.00;99.90;;;;;;5074909;28;20396;-71
2022/09/16 05:36:07;;;;;;;5.03;4.10;;;15.00;99.90;;;;;;5073252;28;20447;-71
2022/09/16 05:38:33;;;;;;;5.33;3.70;;;15.10;99.90;;;;;;5074605;28;20776;-70
2022/09/16 05:41:00;;;;;;;7.93;4.67;;;15.20;99.90;;;;;;5074332;28;20426;-71
2022/09/16 05:43:25;;;;;;;4.70;4.20;;;15.30;99.90;;;;;;5073803;28;20160;-69
2022/09/16 05:45:52;;;;;;;5.27;3.87;;;15.40;99.90;;;;;;5074952;28;20755;-71
2022/09/16 05:48:18;;;;;;;4.20;3.90;;;15.30;99.90;;;;;;5074420;28;20192;-70
2022/09/16 05:50:55;;;;;;;5.40;4.90;;;15.30;99.90;;;;;;5073611;28;20399;-70
2022/09/16 05:53:21;;;;;;;4.80;4.30;;;15.40;99.90;;;;;;5053486;28;20642;-70
2022/09/16 05:55:59;;;;;;;8.90;7.10;;;15.10;99.90;;;;;;5054479;28;20408;-70
2022/09/16 05:58:27;;;;;;;5.70;4.70;;;15.20;99.90;;;;;;5069910;28;20435;-70
2022/09/16 06:01:04;;;;;;;4.20;3.80;;;15.30;99.90;;;;;;5074683;28;20417;-70
2022/09/16 06:03:29;;;;;;;5.60;4.20;;;15.40;99.90;;;;;;5074198;28;20376;-70
2022/09/16 06:06:03;;;;;;;5.13;4.63;;;15.40;99.90;;;;;;5074105;28;20778;-70
2022/09/16 06:08:31;;;;;;;5.43;4.43;;;15.40;99.90;;;;;;5073391;28;20232;-70
2022/09/16 06:11:00;;;;;;;5.93;4.97;;;15.40;99.90;;;;;;5073406;28;20476;-73
2022/09/16 06:13:25;;;;;;;7.53;4.97;;;15.40;99.90;;;;;;5071698;28;20477;-71
2022/09/16 06:15:55;;;;;;;5.53;5.03;;;15.50;99.90;;;;;;5073958;28;20468;-69
2022/09/16 06:18:22;;;;;;;6.90;5.07;;;15.50;99.90;;;;;;5073582;28;20230;-70
2022/09/16 06:20:48;;;;;;;8.80;5.53;;;15.40;99.90;;;;;;5073556;28;20926;-70
2022/09/16 06:23:14;;;;;;;5.20;4.40;;;15.40;99.90;;;;;;5074353;28;20434;-70
2022/09/16 06:25:40;;;;;;;5.43;4.93;;;15.60;99.90;;;;;;5073760;28;20568;-70
2022/09/16 06:28:06;;;;;;;7.90;4.47;;;15.60;99.90;;;;;;5073003;28;20462;-70
2022/09/16 06:30:31;;;;;;;5.27;4.63;;;15.70;99.90;;;;;;5073314;28;20219;-71
2022/09/16 06:32:57;;;;;;;6.23;4.77;;;15.70;99.90;;;;;;5073660;28;20161;-70
2022/09/16 06:35:22;;;;;;;5.83;4.77;;;15.60;99.90;;;;;;5071849;28;20244;-70
2022/09/16 06:37:48;;;;;;;5.80;4.40;;;15.60;99.90;;;;;;5073390;28;20180;-69
2022/09/16 06:40:14;;;;;;;7.33;4.10;;;15.50;99.90;;;;;;5073554;28;20634;-71
2022/09/16 06:42:40;;;;;;;7.97;4.40;;;15.60;99.90;;;;;;5072942;28;20192;-71
2022/09/16 06:45:06;;;;;;;4.10;3.70;;;15.60;99.90;;;;;;5073225;28;20172;-70
2022/09/16 06:47:34;;;;;;;6.93;4.10;;;15.50;99.90;;;;;;5073523;28;20752;-70
2022/09/16 06:50:00;;;;;;;6.97;3.97;;;15.50;99.90;;;;;;5075955;28;20166;-70
2022/09/16 06:52:26;;;;;;;6.47;4.90;;;15.30;99.90;;;;;;5072873;28;20423;-69
2022/09/16 06:54:53;;;;;;;8.47;3.77;;;15.40;99.90;;;;;;5073254;28;20169;-69
2022/09/16 06:57:21;;;;;;;6.90;3.83;;;15.40;99.90;;;;;;5071477;28;20592;-69
2022/09/16 06:59:50;;;;;;;7.80;3.97;;;15.40;99.90;;;;;;5072939;28;20924;-70
2022/09/16 07:02:16;;;;;;;5.83;3.50;;;15.30;99.90;;;;;;5072788;28;20421;-69
2022/09/16 07:04:42;;;;;;;5.47;4.10;;;15.00;99.90;;;;;;5073563;28;20915;-70
2022/09/16 07:07:08;;;;;;;4.63;3.57;;;15.00;99.90;;;;;;5072094;28;20480;-70
2022/09/16 07:09:34;;;;;;;7.80;5.27;;;15.00;99.90;;;;;;5073892;28;20170;-70
2022/09/16 07:12:00;;;;;;;7.20;4.50;;;15.20;99.90;;;;;;5072910;28;20826;-70
2022/09/16 07:14:26;;;;;;;7.33;4.70;;;15.50;99.90;;;;;;5072754;28;20217;-70
2022/09/16 07:16:52;;;;;;;4.53;4.10;;;15.50;99.90;;;;;;5072809;28;20439;-70
2022/09/16 07:19:18;;;;;;;6.07;4.07;;;15.10;99.90;;;;;;5074624;28;20414;-70
2022/09/16 07:21:43;;;;;;;7.07;4.33;;;14.70;99.90;;;;;;5076930;28;20431;-70
2022/09/16 07:24:12;;;;;;;5.73;4.30;;;14.30;99.90;;;;;;5076990;28;20208;-70
2022/09/16 07:26:39;;;;;;;5.10;4.60;;;14.30;99.90;;;;;;5076875;28;20162;-70
2022/09/16 07:29:08;;;;;;;4.40;4.00;;;14.30;99.90;;;;;;5076051;28;20414;-70
2022/09/16 07:31:36;;;;;;;5.43;4.50;;;14.30;99.90;;;;;;5076792;28;20441;-70
2022/09/16 07:34:04;;;;;;;9.27;5.43;;;14.40;99.90;;;;;;5077272;28;20435;-70
2022/09/16 07:36:37;;;;;;;7.30;5.13;;;14.50;99.90;;;;;;5078950;28;20442;-71
2022/09/16 07:39:04;;;;;;;8.10;5.17;;;14.70;99.90;;;;;;5077369;28;20391;-71
2022/09/16 07:41:33;;;;;;;7.33;4.60;;;14.80;99.90;;;;;;5077620;28;20500;-71
2022/09/16 07:43:59;;;;;;;7.60;5.80;;;14.90;99.90;;;;;;5076290;28;20832;-71
2022/09/16 07:46:31;;;;;;;6.10;4.90;;;15.20;99.90;;;;;;5077587;28;20460;-70
2022/09/16 07:48:58;;;;;;;6.00;4.57;;;15.30;99.90;;;;;;5076310;28;20443;-70
2022/09/16 07:51:26;;;;;;;7.90;6.53;;;15.20;99.90;;;;;;5076617;28;20437;-70
2022/09/16 07:54:02;;;;;;;5.53;5.03;;;14.80;99.90;;;;;;5076460;28;20446;-70
2022/09/16 07:56:30;;;;;;;9.37;5.00;;;14.70;99.90;;;;;;5075430;28;20453;-70
2022/09/16 07:58:56;;;;;;;7.10;5.40;;;14.70;99.90;;;;;;5075867;28;20418;-70
2022/09/16 08:01:22;;;;;;;5.97;5.33;;;14.70;99.90;;;;;;5076239;28;20927;-69
2022/09/16 08:03:48;;;;;;;8.63;5.13;;;14.70;99.90;;;;;;5076282;28;20399;-69
2022/09/16 08:06:20;;;;;;;8.63;5.97;;;14.90;99.90;;;;;;5076180;28;20404;-70
2022/09/16 08:08:47;;;;;;;6.40;5.80;;;15.00;99.90;;;;;;5076424;28;20418;-69
2022/09/16 08:11:13;;;;;;;6.53;5.87;;;14.90;99.90;;;;;;5074583;28;20434;-70
2022/09/16 08:13:41;;;;;;;6.10;5.50;;;15.00;99.90;;;;;;5075687;28;20412;-70
2022/09/16 08:16:14;;;;;;;5.87;4.90;;;15.30;99.90;;;;;;5076209;28;20513;-70
2022/09/16 08:18:40;;;;;;;6.30;5.70;;;15.40;99.90;;;;;;5074892;28;20419;-69
2022/09/16 08:21:12;;;;;;;6.70;6.00;;;15.70;99.90;;;;;;5075970;28;20848;-70
2022/09/16 08:23:38;;;;;;;9.87;5.77;;;16.00;99.90;;;;;;5075076;28;20406;-70
2022/09/16 08:26:05;;;;;;;5.50;4.83;;;16.10;99.90;;;;;;5075939;28;21029;-69
2022/09/16 08:28:31;;;;;;;6.27;5.60;;;16.00;99.90;;;;;;5075576;28;20415;-69
2022/09/16 08:31:00;;;;;;;6.10;5.00;;;15.80;99.90;;;;;;5098472;22;21028;-65
2022/09/16 08:33:27;;;;;;;9.33;6.87;;;15.90;99.90;;;;;;5035212;28;20427;-65
2022/09/16 08:36:00;;;;;;;6.53;5.67;;;15.90;99.90;;;;;;5034064;28;20418;-65
2022/09/16 08:38:26;;;;;;;7.83;5.80;;;15.60;99.90;;;;;;5033928;28;20422;-65
2022/09/16 08:41:00;;;;;;;7.07;6.30;;;15.60;99.90;;;;;;5035226;28;20398;-65
2022/09/16 08:43:56;;;;;;;6.63;5.97;;;15.60;99.90;;;;;;5034787;28;20392;-65
2022/09/16 08:46:38;;;;;;;8.17;6.40;;;15.90;99.90;;;;;;5014518;28;20416;-65
2022/09/16 08:49:32;;;;;;;7.53;6.70;;;15.90;99.90;;;;;;5035613;28;20384;-65
2022/09/16 08:52:01;;;;;;;10.13;6.30;;;15.70;99.90;;;;;;5034638;28;20423;-65
2022/09/16 08:54:33;;;;;;;8.30;7.53;;;15.80;99.90;;;;;;5034907;28;20911;-65
2022/09/16 08:57:02;;;;;;;6.80;5.83;;;15.80;99.90;;;;;;5034539;28;20458;-65
2022/09/16 08:59:39;;;;;;;7.07;6.27;;;15.80;99.90;;;;;;5033363;28;20426;-65
2022/09/16 09:02:25;;;;;;;6.87;5.27;;;15.60;99.90;;;;;;5034786;28;20411;-65
2022/09/16 09:04:51;;;;;;;5.20;4.70;;;15.60;99.90;;;;;;5035050;28;20419;-65
2022/09/16 09:07:39;;;;;;;7.67;5.80;;;15.70;99.90;;;;;;5034895;28;20874;-64
2022/09/16 09:10:28;;;;;;;6.00;4.20;;;15.90;99.90;;;;;;5033369;28;20187;-65
2022/09/16 09:12:58;;;;;;;5.90;5.40;;;16.00;99.90;;;;;;5034898;28;20427;-65
2022/09/16 09:15:56;;;;;;;7.63;4.73;;;16.20;99.90;;;;;;5034593;28;20391;-65
2022/09/16 09:18:22;;;;;;;9.23;4.60;;;16.40;99.90;;;;;;5034540;28;20425;-65
2022/09/16 09:21:07;;;;;;;4.13;3.53;;;16.70;99.90;;;;;;5034391;28;20934;-66
2022/09/16 09:24:00;;;;;;;7.63;4.63;;;16.50;99.90;;;;;;5034197;28;20150;-65
2022/09/16 09:26:47;;;;;;;5.17;4.67;;;16.60;99.90;;;;;;5034318;28;20897;-65
2022/09/16 09:29:12;;;;;;;5.97;4.77;;;16.50;99.90;;;;;;5034844;28;20373;-65
2022/09/16 09:31:52;;;;;;;5.50;4.30;;;16.60;99.90;;;;;;5034078;28;20536;-65
2022/09/16 09:35:02;;;;;;;4.87;4.37;;;16.70;99.90;;;;;;5034619;28;20239;-65
2022/09/16 09:37:52;;;;;;;5.30;4.80;;;16.60;99.90;;;;;;5032558;28;20450;-65
2022/09/16 09:40:33;;;;;;;5.57;4.60;;;16.60;99.90;;;;;;5014358;28;20966;-66
2022/09/16 09:43:03;;;;;;;3.90;3.60;;;16.60;99.90;;;;;;5013632;28;20415;-66
2022/09/16 09:45:36;;;;;;;4.80;4.07;;;16.80;99.90;;;;;;5014590;28;20399;-65
2022/09/16 09:48:20;;;;;;;4.83;4.00;;;17.00;99.90;;;;;;5014653;28;20383;-66
2022/09/16 09:50:47;;;;;;;4.33;4.03;;;17.20;99.90;;;;;;5014459;28;20375;-65
2022/09/16 09:53:35;;;;;;;6.20;4.17;;;17.20;99.90;;;;;;5014178;28;20410;-67
2022/09/16 09:56:10;;;;;;;3.90;3.60;;;17.20;99.90;;;;;;5015692;28;20836;-65
2022/09/16 09:58:43;;;;;;;7.67;3.83;;;17.00;99.90;;;;;;5014267;28;20409;-65
2022/09/16 10:01:10;;;;;;;8.83;4.57;;;16.90;99.90;;;;;;5014022;28;20423;-65
2022/09/16 10:03:36;;;;;;;3.67;3.37;;;17.00;99.90;;;;;;5022771;28;20443;-66
2022/09/16 10:06:02;;;;;;;6.07;4.00;;;17.00;99.90;;;;;;5033638;28;20480;-65
2022/09/16 10:08:47;;;;;;;5.80;4.90;;;16.90;99.90;;;;;;5032776;28;20421;-65
2022/09/16 10:11:24;;;;;;;3.83;3.43;;;16.90;99.90;;;;;;5034182;28;20221;-66
2022/09/16 10:13:54;;;;;;;4.53;3.67;;;17.10;99.90;;;;;;5033727;28;20493;-66
2022/09/16 10:16:31;;;;;;;4.87;4.47;;;17.20;99.90;;;;;;5033413;28;20449;-66
2022/09/16 10:19:05;;;;;;;5.60;5.10;;;17.20;99.90;;;;;;5033177;28;20448;-66
2022/09/16 10:22:15;;;;;;;5.40;4.90;;;17.10;99.90;;;;;;5033599;28;20420;-66
2022/09/16 10:24:42;;;;;;;6.47;3.87;;;17.00;99.90;;;;;;5008199;28;20420;-66
2022/09/16 10:27:20;;;;;;;3.90;3.60;;;16.70;99.90;;;;;;5033670;28;20831;-66
2022/09/16 10:29:46;;;;;;;6.63;5.10;;;16.40;99.90;;;;;;5033155;28;20431;-66
2022/09/16 10:32:18;;;;;;;5.30;4.77;;;16.30;99.90;;;;;;5032816;28;20524;-66
2022/09/16 10:34:45;;;;;;;6.20;4.10;;;16.30;99.90;;;;;;5031686;28;20926;-66
2022/09/16 10:37:11;;;;;;;6.43;4.47;;;16.40;99.90;;;;;;5013763;28;20471;-66
2022/09/16 10:39:42;;;;;;;5.70;5.03;;;16.50;99.90;;;;;;5026304;28;20429;-66
2022/09/16 10:42:25;;;;;;;5.17;4.67;;;16.70;99.90;;;;;;5013663;28;20905;-66
2022/09/16 10:44:53;;;;;;;7.03;4.40;;;16.70;99.90;;;;;;5013323;28;20879;-66
2022/09/16 10:47:25;;;;;;;7.30;4.30;;;16.80;99.90;;;;;;5032252;28;20923;-66
2022/09/16 10:49:54;;;;;;;3.50;3.20;;;16.70;99.90;;;;;;5032503;28;20416;-66
2022/09/16 10:52:22;;;;;;;4.13;3.73;;;17.00;99.90;;;;;;5032879;28;20437;-66
2022/09/16 10:54:49;;;;;;;4.30;3.90;;;16.80;99.90;;;;;;5032412;28;20415;-66
2022/09/16 10:57:31;;;;;;;4.27;3.60;;;16.70;99.90;;;;;;5031365;28;20547;-66
2022/09/16 11:00:13;;;;;;;4.40;3.90;;;16.80;99.90;;;;;;5033299;28;20939;-66
2022/09/16 11:02:56;;;;;;;6.17;3.40;;;16.70;99.90;;;;;;5032511;28;20521;-67
2022/09/16 11:05:43;;;;;;;3.87;3.40;;;16.80;99.90;;;;;;5012906;28;20421;-66
2022/09/16 11:08:44;;;;;;;5.80;3.83;;;16.80;99.90;;;;;;5013287;28;20865;-66
2022/09/16 11:11:31;;;;;;;5.00;4.20;;;17.00;99.90;;;;;;5012889;28;20426;-66
2022/09/16 11:14:02;;;;;;;4.17;3.87;;;17.00;99.90;;;;;;5013013;28;20405;-66
2022/09/16 11:16:52;;;;;;;3.83;3.23;;;16.80;99.90;;;;;;5013013;28;20473;-65
2022/09/16 11:19:42;;;;;;;3.83;3.10;;;16.80;99.90;;;;;;5012680;28;20391;-66
2022/09/16 11:22:37;;;;;;;4.67;4.37;;;16.90;99.90;;;;;;5012808;28;20411;-66
2022/09/16 11:25:20;;;;;;;2.97;2.77;;;16.90;99.90;;;;;;4963314;28;20916;-67
2022/09/16 11:28:32;;;;;;;3.70;3.40;;;16.80;99.90;;;;;;5013138;28;20378;-67
2022/09/16 11:31:39;;;;;;;3.73;3.43;;;16.90;99.90;;;;;;5012566;28;20406;-67
2022/09/16 11:34:33;;;;;;;3.40;2.93;;;16.80;99.90;;;;;;5000961;28;20438;-66
2022/09/16 11:37:25;;;;;;;7.93;4.13;;;16.60;99.90;;;;;;4994427;28;20571;-67
2022/09/16 11:40:21;;;;;;;6.77;3.53;;;16.50;99.90;;;;;;5032376;28;20412;-66
2022/09/16 11:43:20;;;;;;;4.27;2.83;;;16.50;99.90;;;;;;5032475;28;20432;-67
2022/09/16 11:46:22;;;;;;;5.10;3.50;;;16.40;99.90;;;;;;5032181;28;20386;-66
2022/09/16 11:49:05;;;;;;;5.63;3.30;;;16.30;99.90;;;;;;5031963;28;20417;-66
2022/09/16 11:52:04;;;;;;;3.53;2.83;;;16.40;99.90;;;;;;5032548;28;20414;-66
2022/09/16 11:55:05;;;;;;;4.00;3.03;;;16.40;99.90;;;;;;5032565;28;20397;-66
2022/09/16 11:57:37;;;;;;;4.23;2.90;;;16.40;99.90;;;;;;4980298;28;20837;-66
2022/09/16 12:00:15;;;;;;;5.73;2.60;;;16.80;99.90;;;;;;5032197;28;20418;-66
2022/09/16 12:03:07;;;;;;;3.87;3.03;;;16.80;99.90;;;;;;5032387;28;20437;-66
2022/09/16 12:05:44;;;;;;;5.30;2.70;;;17.20;99.90;;;;;;5012701;28;20909;-66
2022/09/16 12:08:24;;;;;;;5.07;2.73;;;18.00;99.90;;;;;;5015953;28;20402;-66
2022/09/16 12:11:13;;;;;;;3.60;2.53;;;18.10;99.90;;;;;;5015886;28;20395;-66
2022/09/16 12:13:48;;;;;;;3.17;2.23;;;18.00;99.90;;;;;;5016069;28;20391;-66
2022/09/16 12:16:23;;;;;;;5.40;2.40;;;18.10;99.90;;;;;;5016099;28;20445;-66
2022/09/16 12:18:52;;;;;;;3.50;2.30;;;19.30;99.90;;;;;;5015379;28;20391;-66
2022/09/16 12:21:46;;;;;;;3.00;2.00;;;20.80;99.90;;;;;;5015643;28;20423;-66
2022/09/16 12:24:55;;;;;;;2.90;2.40;;;20.40;99.90;;;;;;5015530;28;20388;-66
2022/09/16 12:27:33;;;;;;;2.13;1.87;;;19.60;99.90;;;;;;4969180;28;20917;-66
2022/09/16 12:30:04;;;;;;;3.77;2.33;;;19.20;99.90;;;;;;5015919;28;20567;-66
2022/09/16 12:32:42;;;;;;;3.90;2.50;;;19.00;99.90;;;;;;5015416;28;20439;-66
2022/09/16 12:35:19;;;;;;;4.07;2.20;;;18.80;99.90;;;;;;5032886;28;20452;-66
2022/09/16 12:37:53;;;;;;;3.20;2.30;;;18.70;99.90;;;;;;5035524;28;20437;-66
2022/09/16 12:40:23;;;;;;;3.87;2.33;;;18.10;99.90;;;;;;5035443;28;20413;-66
2022/09/16 12:43:32;;;;;;;3.00;2.10;;;17.90;99.90;;;;;;5035391;28;20410;-66
2022/09/16 12:45:57;;;;;;;4.17;2.60;;;18.00;99.90;;;;;;5035260;28;20386;-66
2022/09/16 12:48:53;;;;;;;5.67;2.67;;;18.00;99.90;;;;;;5034926;28;20929;-66
2022/09/16 12:52:02;;;;;;;3.83;2.10;;;17.80;99.90;;;;;;5034063;28;20199;-66
2022/09/16 12:54:39;;;;;;;2.40;1.97;;;17.70;99.90;;;;;;4998318;28;20404;-66
2022/09/16 12:57:19;;;;;;;2.97;2.20;;;17.80;99.90;;;;;;5035085;28;20528;-66
2022/09/16 12:59:47;;;;;;;3.50;1.97;;;18.00;99.90;;;;;;5034701;28;20398;-66
2022/09/16 13:02:19;;;;;;;2.43;2.13;;;17.80;99.90;;;;;;5034589;28;20509;-66
2022/09/16 13:04:50;;;;;;;5.10;2.40;;;17.80;99.90;;;;;;5033314;28;20414;-66
2022/09/16 13:07:34;;;;;;;4.30;2.77;;;18.10;99.90;;;;;;5034955;28;20409;-66
2022/09/16 13:10:18;;;;;;;5.37;1.93;;;17.60;99.90;;;;;;5034658;28;20854;-66
2022/09/16 13:12:53;;;;;;;3.63;2.60;;;17.60;99.90;;;;;;5034807;28;20491;-66
2022/09/16 13:15:35;;;;;;;3.50;2.27;;;17.70;99.90;;;;;;5034413;28;20397;-66
2022/09/16 13:18:15;;;;;;;3.17;2.20;;;18.10;99.90;;;;;;5034270;28;20895;-66
2022/09/16 13:20:49;;;;;;;4.30;2.60;;;18.90;99.90;;;;;;5034147;28;20438;-66
2022/09/16 13:23:17;;;;;;;3.60;2.03;;;18.90;99.90;;;;;;5034677;28;20770;-66